N150QR KGCN-KSDF
Flight info
| Callsign | N150QR |
|---|---|
| Flight time | N/A |
| Altitude | 45000 |
| Route | GRAND4 BISOP BAVPE J72 GUP J96 CIM Q176 TOTOE MAKES SGF MOOCH MBELL5 |
| Aircraft | C700/L-VGDW/C |
Departure
| Time | 2026-05-04 20:21 |
|---|---|
| Airport | Grand Canyon National Park Airport (KGCN) |
Arrival
| Time | N/A |
|---|---|
| Airport | Louisville Muhammad Ali International Airport (KSDF) |
| Time | Latitude | Longitude | Altitude | Speed | Heading |
|---|---|---|---|---|---|
| 2026-05-04 20:13 | 35.96120 | -112.13511 | 6613 ft | 0 kts | 221° |
| 2026-05-04 20:19 | 35.96115 | -112.13529 | 6613 ft | 6 kts | 271° |
| 2026-05-04 20:20 | 35.96141 | -112.13606 | 6612 ft | 11 kts | 290° |
| 2026-05-04 20:20 | 35.96151 | -112.13699 | 6612 ft | 8 kts | 308° |
| 2026-05-04 20:20 | 35.96145 | -112.13743 | 6611 ft | 8 kts | 222° |
| 2026-05-04 20:20 | 35.95987 | -112.13909 | 6605 ft | 66 kts | 220° |
| 2026-05-04 20:21 | 35.95423 | -112.14503 | 6584 ft | 145 kts | 219° |
| 2026-05-04 20:21 | 35.94557 | -112.15475 | 7123 ft | 183 kts | 218° |
| 2026-05-04 20:21 | 35.92276 | -112.17256 | 9667 ft | 205 kts | 206° |
| 2026-05-04 20:22 | 35.90918 | -112.18106 | 10590 ft | 230 kts | 208° |
| 2026-05-04 20:22 | 35.89287 | -112.18531 | 11503 ft | 263 kts | 178° |
| 2026-05-04 20:22 | 35.87497 | -112.17565 | 12401 ft | 304 kts | 146° |
| 2026-05-04 20:22 | 35.86133 | -112.15436 | 13411 ft | 333 kts | 127° |
| 2026-05-04 20:23 | 35.84946 | -112.12962 | 14704 ft | 342 kts | 123° |
| 2026-05-04 20:23 | 35.83840 | -112.10272 | 15857 ft | 355 kts | 120° |
| 2026-05-04 20:23 | 35.82755 | -112.07516 | 16992 ft | 365 kts | 121° |
| 2026-05-04 20:23 | 35.81549 | -112.04685 | 18132 ft | 375 kts | 123° |
| 2026-05-04 20:24 | 35.80311 | -112.01861 | 19094 ft | 385 kts | 123° |
| 2026-05-04 20:24 | 35.79046 | -111.98878 | 20043 ft | 395 kts | 123° |
| 2026-05-04 20:24 | 35.77771 | -111.95832 | 20914 ft | 404 kts | 123° |
| 2026-05-04 20:24 | 35.76446 | -111.92716 | 21763 ft | 413 kts | 124° |
| 2026-05-04 20:25 | 35.75101 | -111.89579 | 22595 ft | 422 kts | 124° |
| 2026-05-04 20:25 | 35.73717 | -111.86335 | 23432 ft | 431 kts | 125° |
| 2026-05-04 20:25 | 35.72328 | -111.83066 | 24168 ft | 437 kts | 125° |
| 2026-05-04 20:25 | 35.70908 | -111.79734 | 24993 ft | 441 kts | 126° |
| 2026-05-04 20:26 | 35.69469 | -111.76371 | 25777 ft | 446 kts | 127° |
| 2026-05-04 20:26 | 35.68012 | -111.72970 | 26515 ft | 452 kts | 127° |
| 2026-05-04 20:26 | 35.66545 | -111.69546 | 27221 ft | 457 kts | 127° |
| 2026-05-04 20:26 | 35.65052 | -111.66062 | 27974 ft | 462 kts | 128° |
| 2026-05-04 20:27 | 35.63553 | -111.62568 | 28719 ft | 467 kts | 128° |
| 2026-05-04 20:27 | 35.62019 | -111.58996 | 29490 ft | 472 kts | 128° |
| 2026-05-04 20:27 | 35.60488 | -111.55415 | 30143 ft | 480 kts | 127° |
| 2026-05-04 20:27 | 35.59220 | -111.51575 | 30660 ft | 500 kts | 117° |
| 2026-05-04 20:28 | 35.58350 | -111.47335 | 31178 ft | 517 kts | 108° |
| 2026-05-04 20:28 | 35.57973 | -111.42894 | 31659 ft | 533 kts | 98° |
| 2026-05-04 20:28 | 35.57851 | -111.38340 | 32130 ft | 539 kts | 98° |
| 2026-05-04 20:28 | 35.57714 | -111.33669 | 32604 ft | 545 kts | 98° |
| 2026-05-04 20:29 | 35.57561 | -111.29019 | 33091 ft | 550 kts | 98° |
| 2026-05-04 20:29 | 35.57411 | -111.24329 | 33732 ft | 552 kts | 98° |
| 2026-05-04 20:29 | 35.57268 | -111.19617 | 34331 ft | 553 kts | 97° |
| 2026-05-04 20:29 | 35.57122 | -111.14911 | 35055 ft | 550 kts | 98° |
| 2026-05-04 20:30 | 35.56965 | -111.10190 | 35746 ft | 548 kts | 98° |
| 2026-05-04 20:30 | 35.56808 | -111.05559 | 36375 ft | 546 kts | 98° |
| 2026-05-04 20:30 | 35.56654 | -111.00873 | 36970 ft | 544 kts | 98° |
| 2026-05-04 20:30 | 35.56500 | -110.96217 | 37528 ft | 542 kts | 98° |
| 2026-05-04 20:31 | 35.56341 | -110.91612 | 38047 ft | 541 kts | 98° |
| 2026-05-04 20:31 | 35.56182 | -110.87030 | 38517 ft | 539 kts | 98° |
| 2026-05-04 20:31 | 35.56023 | -110.82454 | 38894 ft | 538 kts | 98° |
| 2026-05-04 20:31 | 35.55861 | -110.77835 | 39290 ft | 535 kts | 98° |
| 2026-05-04 20:32 | 35.55700 | -110.73292 | 39663 ft | 533 kts | 98° |
| 2026-05-04 20:32 | 35.55534 | -110.68718 | 40013 ft | 531 kts | 97° |
| 2026-05-04 20:32 | 35.55370 | -110.64208 | 40348 ft | 530 kts | 97° |
| 2026-05-04 20:32 | 35.55206 | -110.59730 | 40657 ft | 528 kts | 97° |
| 2026-05-04 20:33 | 35.55038 | -110.55199 | 40954 ft | 527 kts | 97° |
| 2026-05-04 20:33 | 35.54869 | -110.50734 | 41228 ft | 526 kts | 97° |
| 2026-05-04 20:33 | 35.54701 | -110.46277 | 41496 ft | 525 kts | 97° |
| 2026-05-04 20:33 | 35.54530 | -110.41776 | 41776 ft | 524 kts | 97° |
| 2026-05-04 20:34 | 35.54358 | -110.37336 | 42027 ft | 522 kts | 97° |
| 2026-05-04 20:34 | 35.54186 | -110.32902 | 42206 ft | 522 kts | 97° |
| 2026-05-04 20:34 | 35.54008 | -110.28421 | 42409 ft | 522 kts | 97° |
| 2026-05-04 20:34 | 35.53832 | -110.23995 | 42655 ft | 520 kts | 97° |
| 2026-05-04 20:35 | 35.53657 | -110.19586 | 42877 ft | 519 kts | 97° |
| 2026-05-04 20:35 | 35.53480 | -110.15186 | 43084 ft | 518 kts | 97° |
| 2026-05-04 20:35 | 35.53298 | -110.10774 | 43269 ft | 517 kts | 97° |
| 2026-05-04 20:35 | 35.53115 | -110.06343 | 43448 ft | 516 kts | 97° |
| 2026-05-04 20:36 | 35.52933 | -110.01937 | 43606 ft | 516 kts | 97° |
| 2026-05-04 20:36 | 35.52749 | -109.97511 | 43777 ft | 515 kts | 97° |
| 2026-05-04 20:36 | 35.52563 | -109.93147 | 43949 ft | 514 kts | 97° |
| 2026-05-04 20:36 | 35.52374 | -109.88739 | 44109 ft | 514 kts | 97° |
| 2026-05-04 20:37 | 35.52187 | -109.84377 | 44263 ft | 513 kts | 97° |
| 2026-05-04 20:37 | 35.51998 | -109.80006 | 44416 ft | 513 kts | 97° |
| 2026-05-04 20:37 | 35.51808 | -109.75669 | 44538 ft | 512 kts | 97° |
| 2026-05-04 20:37 | 35.51616 | -109.71325 | 44628 ft | 512 kts | 97° |
| 2026-05-04 20:38 | 35.51226 | -109.62577 | 44796 ft | 512 kts | 97° |
| 2026-05-04 20:38 | 35.50827 | -109.53819 | 44844 ft | 516 kts | 97° |
| 2026-05-04 20:39 | 35.50424 | -109.45045 | 44849 ft | 520 kts | 97° |
| 2026-05-04 20:39 | 35.50006 | -109.36132 | 44911 ft | 524 kts | 97° |
| 2026-05-04 20:40 | 35.49580 | -109.27157 | 44967 ft | 527 kts | 97° |
| 2026-05-04 20:40 | 35.49146 | -109.18190 | 45007 ft | 531 kts | 97° |
| 2026-05-04 20:41 | 35.48700 | -109.09089 | 45016 ft | 534 kts | 97° |
| 2026-05-04 20:41 | 35.48247 | -109.00003 | 44998 ft | 537 kts | 97° |
| 2026-05-04 20:42 | 35.47867 | -108.90855 | 45076 ft | 542 kts | 91° |
| 2026-05-04 20:42 | 35.49121 | -108.81685 | 45091 ft | 547 kts | 71° |
| 2026-05-04 20:43 | 35.51556 | -108.72806 | 45096 ft | 550 kts | 71° |
| 2026-05-04 20:43 | 35.53957 | -108.63930 | 45050 ft | 552 kts | 70° |
| 2026-05-04 20:44 | 35.56398 | -108.54958 | 44956 ft | 554 kts | 71° |
| 2026-05-04 20:44 | 35.58827 | -108.45939 | 44869 ft | 556 kts | 70° |
| 2026-05-04 20:45 | 35.61248 | -108.36959 | 44788 ft | 556 kts | 71° |
| 2026-05-04 20:45 | 35.63669 | -108.27928 | 44785 ft | 555 kts | 71° |
| 2026-05-04 20:46 | 35.66084 | -108.18896 | 44793 ft | 556 kts | 71° |
| 2026-05-04 20:46 | 35.68483 | -108.09894 | 44805 ft | 557 kts | 71° |
| 2026-05-04 20:47 | 35.70889 | -108.00834 | 44816 ft | 559 kts | 71° |
| 2026-05-04 20:47 | 35.73309 | -107.91687 | 44820 ft | 561 kts | 71° |
| 2026-05-04 20:48 | 35.75715 | -107.82562 | 44821 ft | 561 kts | 71° |
| 2026-05-04 20:48 | 35.78116 | -107.73429 | 44842 ft | 559 kts | 71° |
| 2026-05-04 20:49 | 35.80104 | -107.65841 | 44845 ft | 557 kts | 71° |
| 2026-05-04 20:49 | 35.82475 | -107.56762 | 44844 ft | 559 kts | 71° |
| 2026-05-04 20:50 | 35.84853 | -107.47624 | 44862 ft | 560 kts | 71° |
| 2026-05-04 20:50 | 35.87230 | -107.38455 | 44862 ft | 561 kts | 71° |
| 2026-05-04 20:51 | 35.89594 | -107.29309 | 44865 ft | 562 kts | 71° |
| 2026-05-04 20:51 | 35.91969 | -107.20084 | 44864 ft | 564 kts | 71° |
| 2026-05-04 20:52 | 35.94341 | -107.10839 | 44867 ft | 565 kts | 71° |
| 2026-05-04 20:52 | 35.96693 | -107.01638 | 44866 ft | 566 kts | 71° |
| 2026-05-04 20:53 | 35.99062 | -106.92339 | 44870 ft | 567 kts | 71° |
| 2026-05-04 20:53 | 36.01407 | -106.83098 | 44864 ft | 566 kts | 71° |